• Join FlightAware (Why Join?)
  • Login
  • US Flag 
09:58AM EST


 

Airport Tracker/Info


-or-


 

Live Flight TrackerFlight Track Log ✈ UAL4180 ✈ 21-May-2013 ✈ KEWR - KCLT

Flight Track Log - Related Links

Times and Time Zones

All times are in EDT time to prevent confusion due to time zone crossing. See the UAL4180 flight status page for this flight to view local times or setup timezone preferences in your user account.

Time Position Orientation Groundspeed Altitude Reporting Facility
EDT Latitude Longitude Course Direction KTS MPH feet Rate Location/Type
01:18PM 40.6667 -74.1833 246° West 168 193 1,000  Level New York TRACON
01:19PM 40.6333 -74.2333 229° Southwest 202 232 2,800 1,860 Climbing New York TRACON
01:20PM 40.6333 -74.3167 270° West 239 275 4,800 1,920 Climbing New York TRACON
01:21PM 40.5644 -74.4916 250° West  Level FlightAware Approximate
01:22PM 40.5318 -74.6113 250° West  Level FlightAware Approximate
01:22PM 40.6122 -74.4669 260° West 266 306 8,100  Level New York Center
01:23PM 40.4959 -74.7291 246° West  Level FlightAware Approximate
01:23PM 40.6028 -74.5678 263° West 274 315 10,100  Level New York Center
01:24PM 40.4571 -74.8455 246° West  Level FlightAware Approximate
01:24PM 40.5906 -74.6817 262° West 274 315 11,800  Level New York Center
01:25PM 40.5792 -74.7767 261° West 292 336 13,300 1,680 Climbing New York Center
01:26PM 40.5644 -74.9017 261° West 310 357 15,200 1,680 Climbing New York Center
01:27PM 40.5519 -75.0156 262° West 315 362 16,700 1,560 Climbing New York Center
01:28PM 40.4986 -75.1106 234° Southwest 310 357 18,300 1,440 Climbing New York Center
01:29PM 40.4475 -75.1892 230° Southwest 322 371 19,600 1,140 Climbing New York Center
01:30PM 40.3900 -75.2836 231° Southwest 335 386 20,600 840 Climbing New York Center
01:31PM 40.3297 -75.3858 232° Southwest 346 398 21,300 720 Climbing New York Center
01:32PM 40.2628 -75.4928 231° Southwest 368 423 22,100 780 Climbing New York Center
01:33PM 40.1842 -75.5853 222° Southwest 376 433 22,900 720 Climbing New York Center
01:34PM 40.1031 -75.6800 222° Southwest 386 444 23,600 720 Climbing New York Center
01:35PM 40.0178 -75.7744 220° Southwest 402 463 24,400 720 Climbing New York Center
01:36PM 39.9325 -75.8658 219° Southwest 402 463 25,100 720 Climbing New York Center
01:37PM 39.8469 -75.9650 222° Southwest 409 471 25,900 780 Climbing New York Center
01:39PM 39.6811 -76.1469 220° Southwest 412 474 27,400 720 Climbing Washington Center
01:40PM 39.5953 -76.2433 221° Southwest 412 474 28,100 720 Climbing Washington Center
01:41PM 39.5114 -76.3367 221° Southwest 412 474 28,900 720 Climbing Washington Center
01:42PM 39.4336 -76.4406 226° Southwest 412 474 29,600 720 Climbing Washington Center
01:43PM 39.3556 -76.5525 228° Southwest 413 475 30,400 720 Climbing Washington Center
01:44PM 39.2836 -76.6667 231° Southwest 418 481 31,100 660 Climbing Washington Center
01:45PM 39.2097 -76.7783 230° Southwest 418 481 31,800 780 Climbing Washington Center
01:46PM 39.1378 -76.8922 231° Southwest 418 481 32,700 900 Climbing Washington Center
01:47PM 39.0678 -77.0031 231° Southwest 418 481 33,700 1,080 Climbing Washington Center
01:48PM 38.9853 -77.1031 223° Southwest 413 475 34,900 1,080 Climbing Washington Center
01:49PM 38.9028 -77.1919 220° Southwest 401 461 35,900 540 Climbing Washington Center
01:50PM 38.8161 -77.2861 220° Southwest 401 461 36,000  Climbing Washington Center
01:51PM 38.7269 -77.3853 221° Southwest 406 467 36,000  Level Washington Center
01:52PM 38.6358 -77.4839 220° Southwest 427 491 36,000  Level Washington Center
01:53PM 38.5403 -77.5878 220° Southwest 442 509 36,000  Level Washington Center
01:54PM 38.4447 -77.6939 221° Southwest 448 516 36,000  Level Washington Center
01:55PM 38.3511 -77.7919 219° Southwest 448 516 36,000  Level Washington Center
01:56PM 38.2575 -77.8922 220° Southwest 448 516 36,000  Level Washington Center
01:57PM 38.1639 -77.9922 220° Southwest 443 510 36,000  Level Washington Center
01:58PM 38.0700 -78.0947 221° Southwest 444 511 36,000  Level Washington Center
01:59PM 37.9864 -78.1975 224° Southwest 444 511 36,000  Level Washington Center
02:00PM 37.9044 -78.3183 229° Southwest 436 502 36,000  Level Washington Center
02:01PM 37.8225 -78.4364 229° Southwest 448 516 36,000  Level Washington Center
02:02PM 37.7297 -78.5667 228° Southwest 453 521 36,000 -120 Level Washington Center
02:03PM 37.6453 -78.6867 228° Southwest 458 527 35,800 -660 Descending Washington Center
02:04PM 37.5586 -78.8064 228° Southwest 458 527 34,800 -960 Descending Washington Center
02:05PM 37.4761 -78.9283 230° Southwest 458 527 33,900 -1,260 Descending Washington Center
02:06PM 37.3917 -79.0372 226° Southwest 452 520 32,400 -960 Descending Washington Center
02:07PM 37.3039 -79.1194 217° Southwest 433 498 32,000 -180 Descending Washington Center
02:09PM 37.1042 -79.3003 216° Southwest 444 511 32,000  Level Washington Center
02:10PM 37.0056 -79.3917 217° Southwest 450 518 32,000  Level Washington Center
02:11PM 36.9025 -79.4828 215° Southwest 455 524 32,000 -1,140 Level Washington Center
02:14PM 36.7935 -79.5788 215° Southwest  Level FlightAware Approximate
02:14PM 36.5442 -79.8008 215° Southwest 456 525 27,100  Level Atlanta Center
02:15PM 36.4408 -79.8914 215° Southwest 462 532 24,600 -2,400 Descending Atlanta Center
02:16PM 36.3517 -79.9708 216° Southwest 457 526 22,300 -1,320 Descending Atlanta Center
02:17PM 36.2503 -80.0583 215° Southwest 451 519 22,000 -540 Descending Atlanta Center
02:18PM 36.1528 -80.1403 214° Southwest 445 512 21,300 -1,500 Descending Atlanta Center
02:19PM 36.0572 -80.2219 215° Southwest 433 498 19,100 -2,580 Descending Atlanta Center
02:20PM 35.9661 -80.3083 218° Southwest 418 481 16,500 -2,760 Descending Atlanta Center
02:21PM 35.8725 -80.3819 213° Southwest 400 460 14,000 -2,040 Descending Atlanta Center
02:22PM 35.8133 -80.4331 215° Southwest 386 444 13,000 -1,080 Descending Atlanta Center
02:22PM 35.7767 -80.4631 214° Southwest 395 455 12,800 -960 Descending Atlanta Center
02:23PM 35.7369 -80.5286 233° Southwest 303 349 11,900 -1,260 Descending Atlanta Center
02:24PM 35.6789 -80.6156 231° Southwest 300 345 10,400 -1,500 Descending Atlanta Center
02:25PM 35.6208 -80.7022 231° Southwest 301 346 8,700 -1,380 Descending Atlanta Center
02:26PM 35.5889 -80.7622 237° Southwest 287 330 8,000 -720 Descending Atlanta Center
02:26PM 35.5792 -80.7831 240° Southwest 296 341 8,000 -780 Level Atlanta Center
02:27PM 35.5575 -80.8350 243° Southwest 264 304 7,300 -1,320 Descending Atlanta Center
02:27PM 35.5436 -80.8636 239° Southwest 277 319 6,700 -1,680 Descending Atlanta Center
02:28PM 35.5219 -80.9156 243° Southwest 265 305 5,600 -1,500 Descending Atlanta Center
02:28PM 35.5100 -80.9314 227° Southwest 270 311 5,200 -1,500 Descending Atlanta Center
02:29PM 35.4522 -80.9642 205° Southwest 259 298 4,000 -840 Descending Atlanta Center
02:30PM 35.3878 -80.9689 183° South 221 254 3,800 -240 Descending Atlanta Center